Upper Falls, MD (21156)

10:23 AM EDT on June 02, 2015 (GMT -0400)
Kingsville | | Change Station
CLOSE
Current Station
Personal Weather Station
Location: Kingsville, MD
Elevation: 213 ft
Nearby Weather Stations

Elev 213 ft 39.45 °N, 76.39 °W | Updated 5 minutes ago

Overcast
Overcast
57.0 °F
Feels Like 57.0 °F
N
0.0
Wind Variable Wind from South

Today
High -- | Low -- °F
--% Chance of Precip.
Yesterday
High -- | Low -- °F
Precip. -- in
5:40 AM 8:27 PM
Full, 100% visible
Pressure 30.10 in
Visibility 7.0 miles
Clouds Overcast 900 ft
Dew Point 57 °F
Humidity 99%
Rainfall 0.27 in
Snow Depth Not available.
UV 2 out of 12
Pollen .20 out of 12
Air Quality Not available.
Flu Activity Sporadic
METAR KMTN 021350Z 03005KT 7SM OVC009 14/14 A3010

More Conditions Fewer Conditions

Pressure 30.10 in
Visibility 7.0 miles
Clouds Overcast 900 ft
Dew Point 57 °F
Humidity 99%
Rainfall 0.27 in
Snow Depth Not available.
UV 2 out of 12
Pollen .20 out of 12
Air Quality Not available.
Flu Activity Sporadic
METAR KMTN 021350Z 03005KT 7SM OVC009 14/14 A3010

More Conditions Fewer Conditions

10-Day Weather Forecast

Almanac

Astronomy

Jun. 02, 2015 Rise Set
Actual Time
Civil Twilight
Nautical Twilight
Astronomical Twilight
Moon
Length of Visible Light
Length of Day
Tomorrow will be .
, % of the Moon is Illuminated

Today's Extremes

State Highs State Lows

Community

WunderPhotos

Upload Photos

1,825,926 photos uploaded!

WunderBlogs® & News

Nearby

Air Quality

  Air Quality AQ Index Pollutant
Not available.

Snow Depth

Station Depth Elevation

Earthquake Activity

City Distance Mag. Time & Date
Minimum magnitude displayed is 2.5.

Coastal Water Temperatures

Place Temperature

Stations

Nearby Weather Stations

Station Location Temp. Windchill Dew Point Humidity Wind Precip. Elev Updated Type